sensor_id;sensor_type;location;lat;lon;timestamp;temperature;humidity
9915;DHT22;4996;48.746;9.174;2023-03-01T00:00:41;2.30;99.90
9915;DHT22;4996;48.746;9.174;2023-03-01T00:03:12;1.80;99.90
9915;DHT22;4996;48.746;9.174;2023-03-01T00:05:44;2.00;99.90
9915;DHT22;4996;48.746;9.174;2023-03-01T00:08:09;1.80;99.90
9915;DHT22;4996;48.746;9.174;2023-03-01T00:10:35;1.90;99.90
9915;DHT22;4996;48.746;9.174;2023-03-01T00:13:01;1.90;99.90
9915;DHT22;4996;48.746;9.174;2023-03-01T00:15:26;2.00;99.90
9915;DHT22;4996;48.746;9.174;2023-03-01T00:17:52;2.00;99.90
9915;DHT22;4996;48.746;9.174;2023-03-01T00:20:17;2.10;99.90
9915;DHT22;4996;48.746;9.174;2023-03-01T00:22:43;2.00;99.90
9915;DHT22;4996;48.746;9.174;2023-03-01T00:25:08;2.00;99.90
9915;DHT22;4996;48.746;9.174;2023-03-01T00:27:34;2.00;99.90
9915;DHT22;4996;48.746;9.174;2023-03-01T00:30:00;2.00;99.90
9915;DHT22;4996;48.746;9.174;2023-03-01T00:32:25;2.00;99.90
9915;DHT22;4996;48.746;9.174;2023-03-01T00:34:51;1.90;99.90
9915;DHT22;4996;48.746;9.174;2023-03-01T00:37:22;1.80;99.90
9915;DHT22;4996;48.746;9.174;2023-03-01T00:39:48;1.80;99.90
9915;DHT22;4996;48.746;9.174;2023-03-01T00:42:14;2.30;99.90
9915;DHT22;4996;48.746;9.174;2023-03-01T00:44:39;1.80;99.90
9915;DHT22;4996;48.746;9.174;2023-03-01T00:47:05;1.70;99.90
9915;DHT22;4996;48.746;9.174;2023-03-01T00:49:31;1.70;99.90
9915;DHT22;4996;48.746;9.174;2023-03-01T00:51:56;1.60;99.90
9915;DHT22;4996;48.746;9.174;2023-03-01T00:54:22;1.50;99.90
9915;DHT22;4996;48.746;9.174;2023-03-01T00:56:47;1.40;99.90
9915;DHT22;4996;48.746;9.174;2023-03-01T00:59:13;1.40;99.90
9915;DHT22;4996;48.746;9.174;2023-03-01T01:01:38;1.40;99.90
9915;DHT22;4996;48.746;9.174;2023-03-01T01:04:07;1.40;99.90
9915;DHT22;4996;48.746;9.174;2023-03-01T01:06:35;1.30;99.90
9915;DHT22;4996;48.746;9.174;2023-03-01T01:09:03;1.30;99.90
9915;DHT22;4996;48.746;9.174;2023-03-01T01:11:30;1.20;99.90
9915;DHT22;4996;48.746;9.174;2023-03-01T01:13:56;1.20;99.90
9915;DHT22;4996;48.746;9.174;2023-03-01T01:16:24;1.20;99.90
9915;DHT22;4996;48.746;9.174;2023-03-01T01:18:50;1.20;99.90
9915;DHT22;4996;48.746;9.174;2023-03-01T01:21:18;1.10;99.90
9915;DHT22;4996;48.746;9.174;2023-03-01T01:23:45;1.10;99.90
9915;DHT22;4996;48.746;9.174;2023-03-01T01:26:14;1.10;99.90
9915;DHT22;4996;48.746;9.174;2023-03-01T01:28:40;1.00;99.90
9915;DHT22;4996;48.746;9.174;2023-03-01T01:31:06;1.00;99.90
9915;DHT22;4996;48.746;9.174;2023-03-01T01:33:32;1.10;99.90
9915;DHT22;4996;48.746;9.174;2023-03-01T01:35:57;0.40;99.90
9915;DHT22;4996;48.746;9.174;2023-03-01T01:38:23;0.40;99.90
9915;DHT22;4996;48.746;9.174;2023-03-01T01:40:50;0.00;99.90
9915;DHT22;4996;48.746;9.174;2023-03-01T01:45:46;-0.20;99.90
9915;DHT22;4996;48.746;9.174;2023-03-01T01:48:16;-0.30;99.90
9915;DHT22;4996;48.746;9.174;2023-03-01T01:50:44;-0.10;99.90
9915;DHT22;4996;48.746;9.174;2023-03-01T01:53:13;-0.40;99.90
9915;DHT22;4996;48.746;9.174;2023-03-01T01:55:43;-0.40;99.90
9915;DHT22;4996;48.746;9.174;2023-03-01T01:58:13;-0.50;99.90
9915;DHT22;4996;48.746;9.174;2023-03-01T02:00:39;-0.40;99.90
9915;DHT22;4996;48.746;9.174;2023-03-01T02:03:10;-0.10;99.90
9915;DHT22;4996;48.746;9.174;2023-03-01T02:08:16;0.20;99.90
9915;DHT22;4996;48.746;9.174;2023-03-01T02:10:44;0.30;99.90
9915;DHT22;4996;48.746;9.174;2023-03-01T02:13:10;0.30;99.90
9915;DHT22;4996;48.746;9.174;2023-03-01T02:15:38;0.30;99.90
9915;DHT22;4996;48.746;9.174;2023-03-01T02:18:05;0.20;99.90
9915;DHT22;4996;48.746;9.174;2023-03-01T02:23:16;0.10;99.90
9915;DHT22;4996;48.746;9.174;2023-03-01T02:25:50;0.10;99.90
9915;DHT22;4996;48.746;9.174;2023-03-01T02:28:35;0.30;99.90
9915;DHT22;4996;48.746;9.174;2023-03-01T02:31:02;0.40;99.90
9915;DHT22;4996;48.746;9.174;2023-03-01T02:33:47;0.40;99.90
9915;DHT22;4996;48.746;9.174;2023-03-01T02:36:19;0.30;99.90
9915;DHT22;4996;48.746;9.174;2023-03-01T02:38:47;0.40;99.90
9915;DHT22;4996;48.746;9.174;2023-03-01T02:41:15;0.60;99.90
9915;DHT22;4996;48.746;9.174;2023-03-01T02:43:42;0.90;99.90
9915;DHT22;4996;48.746;9.174;2023-03-01T02:46:28;0.80;99.90
9915;DHT22;4996;48.746;9.174;2023-03-01T02:48:55;1.20;99.90
9915;DHT22;4996;48.746;9.174;2023-03-01T02:54:25;0.70;99.90
9915;DHT22;4996;48.746;9.174;2023-03-01T02:56:52;0.70;99.90
9915;DHT22;4996;48.746;9.174;2023-03-01T02:59:21;0.80;99.90
9915;DHT22;4996;48.746;9.174;2023-03-01T03:01:47;0.70;99.90
9915;DHT22;4996;48.746;9.174;2023-03-01T03:04:15;0.70;99.90
9915;DHT22;4996;48.746;9.174;2023-03-01T03:06:47;0.80;99.90
9915;DHT22;4996;48.746;9.174;2023-03-01T03:09:14;0.70;99.90
9915;DHT22;4996;48.746;9.174;2023-03-01T03:11:40;0.70;99.90
9915;DHT22;4996;48.746;9.174;2023-03-01T03:14:08;0.80;99.90
9915;DHT22;4996;48.746;9.174;2023-03-01T03:16:43;0.80;99.90
9915;DHT22;4996;48.746;9.174;2023-03-01T03:19:10;0.80;99.90
9915;DHT22;4996;48.746;9.174;2023-03-01T03:21:35;0.70;99.90
9915;DHT22;4996;48.746;9.174;2023-03-01T03:24:01;0.80;99.90
9915;DHT22;4996;48.746;9.174;2023-03-01T03:26:27;0.70;99.90
9915;DHT22;4996;48.746;9.174;2023-03-01T03:28:53;0.60;99.90
9915;DHT22;4996;48.746;9.174;2023-03-01T03:31:18;0.70;99.90
9915;DHT22;4996;48.746;9.174;2023-03-01T03:33:44;0.70;99.90
9915;DHT22;4996;48.746;9.174;2023-03-01T03:36:09;0.70;99.90
9915;DHT22;4996;48.746;9.174;2023-03-01T03:38:43;1.10;99.90
9915;DHT22;4996;48.746;9.174;2023-03-01T03:41:08;0.80;99.90
9915;DHT22;4996;48.746;9.174;2023-03-01T03:43:36;0.90;99.90
9915;DHT22;4996;48.746;9.174;2023-03-01T03:46:02;0.90;99.90
9915;DHT22;4996;48.746;9.174;2023-03-01T03:48:35;1.20;99.90
9915;DHT22;4996;48.746;9.174;2023-03-01T03:51:01;1.00;99.90
9915;DHT22;4996;48.746;9.174;2023-03-01T03:53:28;1.00;99.90
9915;DHT22;4996;48.746;9.174;2023-03-01T03:55:54;1.10;99.90
9915;DHT22;4996;48.746;9.174;2023-03-01T03:58:22;1.30;99.90
9915;DHT22;4996;48.746;9.174;2023-03-01T04:00:50;1.20;99.90
9915;DHT22;4996;48.746;9.174;2023-03-01T04:03:16;1.30;99.90
9915;DHT22;4996;48.746;9.174;2023-03-01T04:05:44;1.30;99.90
9915;DHT22;4996;48.746;9.174;2023-03-01T04:08:09;1.30;99.90
9915;DHT22;4996;48.746;9.174;2023-03-01T04:10:38;1.30;99.90
9915;DHT22;4996;48.746;9.174;2023-03-01T04:13:05;1.50;99.90
9915;DHT22;4996;48.746;9.174;2023-03-01T04:15:31;1.40;99.90
9915;DHT22;4996;48.746;9.174;2023-03-01T04:17:58;1.40;99.90
9915;DHT22;4996;48.746;9.174;2023-03-01T04:20:28;1.50;99.90
9915;DHT22;4996;48.746;9.174;2023-03-01T04:23:18;1.30;99.90
9915;DHT22;4996;48.746;9.174;2023-03-01T04:25:50;1.30;99.90
9915;DHT22;4996;48.746;9.174;2023-03-01T04:28:27;1.20;99.90
9915;DHT22;4996;48.746;9.174;2023-03-01T04:30:54;1.20;99.90
9915;DHT22;4996;48.746;9.174;2023-03-01T04:33:20;1.10;99.90
9915;DHT22;4996;48.746;9.174;2023-03-01T04:35:46;1.10;99.90
9915;DHT22;4996;48.746;9.174;2023-03-01T04:38:15;1.20;99.90
9915;DHT22;4996;48.746;9.174;2023-03-01T04:40:40;1.20;99.90
9915;DHT22;4996;48.746;9.174;2023-03-01T04:43:09;1.10;99.90
9915;DHT22;4996;48.746;9.174;2023-03-01T04:45:35;1.10;99.90
9915;DHT22;4996;48.746;9.174;2023-03-01T04:48:01;1.10;99.90
9915;DHT22;4996;48.746;9.174;2023-03-01T04:50:27;1.30;99.90
9915;DHT22;4996;48.746;9.174;2023-03-01T04:52:52;1.30;99.90
9915;DHT22;4996;48.746;9.174;2023-03-01T04:55:18;1.30;99.90
9915;DHT22;4996;48.746;9.174;2023-03-01T04:57:44;1.20;99.90
9915;DHT22;4996;48.746;9.174;2023-03-01T05:00:12;1.30;99.90
9915;DHT22;4996;48.746;9.174;2023-03-01T05:05:19;1.20;99.90
9915;DHT22;4996;48.746;9.174;2023-03-01T05:07:44;1.40;99.90
9915;DHT22;4996;48.746;9.174;2023-03-01T05:10:10;1.50;99.90
9915;DHT22;4996;48.746;9.174;2023-03-01T05:12:36;1.40;99.90
9915;DHT22;4996;48.746;9.174;2023-03-01T05:15:03;1.30;99.90
9915;DHT22;4996;48.746;9.174;2023-03-01T05:17:33;1.20;99.90
9915;DHT22;4996;48.746;9.174;2023-03-01T05:19:58;1.30;99.90
9915;DHT22;4996;48.746;9.174;2023-03-01T05:22:25;1.30;99.90
9915;DHT22;4996;48.746;9.174;2023-03-01T05:24:50;1.40;99.90
9915;DHT22;4996;48.746;9.174;2023-03-01T05:27:16;1.60;99.90
9915;DHT22;4996;48.746;9.174;2023-03-01T05:29:41;1.60;99.90
9915;DHT22;4996;48.746;9.174;2023-03-01T05:32:07;1.30;99.90
9915;DHT22;4996;48.746;9.174;2023-03-01T05:34:35;1.30;99.90
9915;DHT22;4996;48.746;9.174;2023-03-01T05:37:02;1.30;99.90
9915;DHT22;4996;48.746;9.174;2023-03-01T05:39:28;1.20;99.90
9915;DHT22;4996;48.746;9.174;2023-03-01T05:41:59;1.30;99.90
9915;DHT22;4996;48.746;9.174;2023-03-01T05:44:25;1.30;99.90
9915;DHT22;4996;48.746;9.174;2023-03-01T05:46:51;1.30;99.90
9915;DHT22;4996;48.746;9.174;2023-03-01T05:49:17;1.20;99.90
9915;DHT22;4996;48.746;9.174;2023-03-01T05:51:48;1.30;99.90
9915;DHT22;4996;48.746;9.174;2023-03-01T05:54:14;1.40;99.90
9915;DHT22;4996;48.746;9.174;2023-03-01T05:56:40;1.40;99.90
9915;DHT22;4996;48.746;9.174;2023-03-01T05:59:06;1.30;99.90
9915;DHT22;4996;48.746;9.174;2023-03-01T06:01:32;1.40;99.90
9915;DHT22;4996;48.746;9.174;2023-03-01T06:03:58;1.40;99.90
9915;DHT22;4996;48.746;9.174;2023-03-01T06:06:24;1.30;99.90
9915;DHT22;4996;48.746;9.174;2023-03-01T06:08:51;1.40;99.90
9915;DHT22;4996;48.746;9.174;2023-03-01T06:11:17;1.30;99.90
9915;DHT22;4996;48.746;9.174;2023-03-01T06:13:43;1.40;99.90
9915;DHT22;4996;48.746;9.174;2023-03-01T06:16:09;1.70;99.90
9915;DHT22;4996;48.746;9.174;2023-03-01T06:18:36;1.40;99.90
9915;DHT22;4996;48.746;9.174;2023-03-01T06:21:01;1.40;99.90
9915;DHT22;4996;48.746;9.174;2023-03-01T06:23:27;1.20;99.90
9915;DHT22;4996;48.746;9.174;2023-03-01T06:25:52;1.30;99.90
9915;DHT22;4996;48.746;9.174;2023-03-01T06:28:18;1.30;99.90
9915;DHT22;4996;48.746;9.174;2023-03-01T06:30:44;1.40;99.90
9915;DHT22;4996;48.746;9.174;2023-03-01T06:33:09;1.50;99.90
9915;DHT22;4996;48.746;9.174;2023-03-01T06:35:35;1.90;99.90
9915;DHT22;4996;48.746;9.174;2023-03-01T06:38:02;1.60;99.90
9915;DHT22;4996;48.746;9.174;2023-03-01T06:40:29;1.50;99.90
9915;DHT22;4996;48.746;9.174;2023-03-01T06:42:56;1.40;99.90
9915;DHT22;4996;48.746;9.174;2023-03-01T06:45:22;1.40;99.90
9915;DHT22;4996;48.746;9.174;2023-03-01T06:47:48;1.30;99.90
9915;DHT22;4996;48.746;9.174;2023-03-01T06:50:15;1.30;99.90
9915;DHT22;4996;48.746;9.174;2023-03-01T06:52:40;1.30;99.90
9915;DHT22;4996;48.746;9.174;2023-03-01T06:55:06;1.30;99.90
9915;DHT22;4996;48.746;9.174;2023-03-01T06:57:32;1.20;99.90
9915;DHT22;4996;48.746;9.174;2023-03-01T06:59:58;1.30;99.90
9915;DHT22;4996;48.746;9.174;2023-03-01T07:02:23;1.20;99.90
9915;DHT22;4996;48.746;9.174;2023-03-01T07:04:52;1.20;99.90
9915;DHT22;4996;48.746;9.174;2023-03-01T07:07:18;1.20;99.90
9915;DHT22;4996;48.746;9.174;2023-03-01T07:09:44;1.10;99.90
9915;DHT22;4996;48.746;9.174;2023-03-01T07:12:10;1.10;99.90
9915;DHT22;4996;48.746;9.174;2023-03-01T07:14:36;1.00;99.90
9915;DHT22;4996;48.746;9.174;2023-03-01T07:17:01;1.60;99.90
9915;DHT22;4996;48.746;9.174;2023-03-01T07:19:27;1.20;99.90
9915;DHT22;4996;48.746;9.174;2023-03-01T07:21:52;1.20;99.90
9915;DHT22;4996;48.746;9.174;2023-03-01T07:24:18;1.40;99.90
9915;DHT22;4996;48.746;9.174;2023-03-01T07:26:44;1.50;99.90
9915;DHT22;4996;48.746;9.174;2023-03-01T07:29:10;1.30;99.90
9915;DHT22;4996;48.746;9.174;2023-03-01T07:31:36;1.40;99.90
9915;DHT22;4996;48.746;9.174;2023-03-01T07:34:02;1.40;99.90
9915;DHT22;4996;48.746;9.174;2023-03-01T07:36:27;1.30;99.90
9915;DHT22;4996;48.746;9.174;2023-03-01T07:38:53;1.90;99.90
9915;DHT22;4996;48.746;9.174;2023-03-01T07:41:20;1.50;99.90
9915;DHT22;4996;48.746;9.174;2023-03-01T07:43:46;1.70;99.90
9915;DHT22;4996;48.746;9.174;2023-03-01T07:46:11;1.90;99.90
9915;DHT22;4996;48.746;9.174;2023-03-01T07:48:37;2.10;99.90
9915;DHT22;4996;48.746;9.174;2023-03-01T07:51:05;2.10;99.90
9915;DHT22;4996;48.746;9.174;2023-03-01T07:53:31;2.20;99.90
9915;DHT22;4996;48.746;9.174;2023-03-01T07:56:04;2.20;99.90
9915;DHT22;4996;48.746;9.174;2023-03-01T07:58:30;2.30;99.90
9915;DHT22;4996;48.746;9.174;2023-03-01T08:00:55;2.40;99.90
9915;DHT22;4996;48.746;9.174;2023-03-01T08:03:21;2.40;99.90
9915;DHT22;4996;48.746;9.174;2023-03-01T08:05:46;2.10;99.90
9915;DHT22;4996;48.746;9.174;2023-03-01T08:08:12;2.60;99.90
9915;DHT22;4996;48.746;9.174;2023-03-01T08:10:37;2.50;99.90
9915;DHT22;4996;48.746;9.174;2023-03-01T08:13:03;2.60;99.90
9915;DHT22;4996;48.746;9.174;2023-03-01T08:15:28;2.40;99.90
9915;DHT22;4996;48.746;9.174;2023-03-01T08:17:54;2.50;99.90
9915;DHT22;4996;48.746;9.174;2023-03-01T08:20:19;2.60;99.90
9915;DHT22;4996;48.746;9.174;2023-03-01T08:22:44;2.50;99.90
9915;DHT22;4996;48.746;9.174;2023-03-01T08:25:10;2.70;99.90
9915;DHT22;4996;48.746;9.174;2023-03-01T08:27:36;3.20;99.90
9915;DHT22;4996;48.746;9.174;2023-03-01T08:30:01;2.90;99.90
9915;DHT22;4996;48.746;9.174;2023-03-01T08:32:27;2.80;99.90
9915;DHT22;4996;48.746;9.174;2023-03-01T08:34:52;3.10;99.90
9915;DHT22;4996;48.746;9.174;2023-03-01T08:37:18;2.60;99.90
9915;DHT22;4996;48.746;9.174;2023-03-01T08:39:43;3.00;99.90
9915;DHT22;4996;48.746;9.174;2023-03-01T08:42:09;3.40;99.90
9915;DHT22;4996;48.746;9.174;2023-03-01T08:44:34;3.60;99.90
9915;DHT22;4996;48.746;9.174;2023-03-01T08:47:00;3.80;99.90
9915;DHT22;4996;48.746;9.174;2023-03-01T08:49:27;3.90;99.90
9915;DHT22;4996;48.746;9.174;2023-03-01T08:51:53;3.90;99.90
9915;DHT22;4996;48.746;9.174;2023-03-01T08:54:20;4.20;99.90
9915;DHT22;4996;48.746;9.174;2023-03-01T08:56:47;4.20;99.90
9915;DHT22;4996;48.746;9.174;2023-03-01T08:59:13;4.40;99.90
9915;DHT22;4996;48.746;9.174;2023-03-01T09:01:39;4.70;99.90
9915;DHT22;4996;48.746;9.174;2023-03-01T09:04:05;5.00;99.90
9915;DHT22;4996;48.746;9.174;2023-03-01T09:06:34;4.80;99.90
9915;DHT22;4996;48.746;9.174;2023-03-01T09:09:02;4.70;99.90
9915;DHT22;4996;48.746;9.174;2023-03-01T09:11:28;4.90;99.90
9915;DHT22;4996;48.746;9.174;2023-03-01T09:13:54;5.00;99.90
9915;DHT22;4996;48.746;9.174;2023-03-01T09:16:21;5.20;99.90
9915;DHT22;4996;48.746;9.174;2023-03-01T09:18:51;5.70;99.90
9915;DHT22;4996;48.746;9.174;2023-03-01T09:21:18;5.90;99.90
9915;DHT22;4996;48.746;9.174;2023-03-01T09:23:46;6.00;99.90
9915;DHT22;4996;48.746;9.174;2023-03-01T09:26:18;6.10;99.90
9915;DHT22;4996;48.746;9.174;2023-03-01T09:28:52;6.00;99.90
9915;DHT22;4996;48.746;9.174;2023-03-01T09:31:19;5.90;99.90
9915;DHT22;4996;48.746;9.174;2023-03-01T09:33:47;5.10;99.90
9915;DHT22;4996;48.746;9.174;2023-03-01T09:36:16;5.40;99.90
9915;DHT22;4996;48.746;9.174;2023-03-01T09:38:41;5.60;99.90
9915;DHT22;4996;48.746;9.174;2023-03-01T09:43:50;5.70;99.90
9915;DHT22;4996;48.746;9.174;2023-03-01T09:46:21;5.80;99.90
9915;DHT22;4996;48.746;9.174;2023-03-01T09:49:04;5.70;99.90
9915;DHT22;4996;48.746;9.174;2023-03-01T09:51:34;5.90;99.90
9915;DHT22;4996;48.746;9.174;2023-03-01T09:54:02;6.20;99.90
9915;DHT22;4996;48.746;9.174;2023-03-01T09:57:05;6.30;99.90
9915;DHT22;4996;48.746;9.174;2023-03-01T09:59:48;5.70;99.90
9915;DHT22;4996;48.746;9.174;2023-03-01T10:02:27;5.70;99.90
9915;DHT22;4996;48.746;9.174;2023-03-01T10:08:06;6.60;99.90
9915;DHT22;4996;48.746;9.174;2023-03-01T10:10:43;6.80;99.80
9915;DHT22;4996;48.746;9.174;2023-03-01T10:16:01;7.00;98.40
9915;DHT22;4996;48.746;9.174;2023-03-01T10:18:31;6.50;98.60
9915;DHT22;4996;48.746;9.174;2023-03-01T10:21:00;6.50;99.20
9915;DHT22;4996;48.746;9.174;2023-03-01T10:23:31;6.70;98.60
9915;DHT22;4996;48.746;9.174;2023-03-01T10:26:21;6.10;98.90
9915;DHT22;4996;48.746;9.174;2023-03-01T10:28:58;6.30;99.30
9915;DHT22;4996;48.746;9.174;2023-03-01T10:31:46;6.10;99.40
9915;DHT22;4996;48.746;9.174;2023-03-01T10:34:16;6.30;99.40
9915;DHT22;4996;48.746;9.174;2023-03-01T10:36:43;6.50;99.40
9915;DHT22;4996;48.746;9.174;2023-03-01T10:39:20;6.70;98.70
9915;DHT22;4996;48.746;9.174;2023-03-01T10:42:09;6.50;98.40
9915;DHT22;4996;48.746;9.174;2023-03-01T10:44:46;6.20;99.10
9915;DHT22;4996;48.746;9.174;2023-03-01T10:50:00;6.10;99.20
9915;DHT22;4996;48.746;9.174;2023-03-01T10:52:30;6.30;99.40
9915;DHT22;4996;48.746;9.174;2023-03-01T10:55:02;6.20;99.00
9915;DHT22;4996;48.746;9.174;2023-03-01T10:57:38;6.30;99.10
9915;DHT22;4996;48.746;9.174;2023-03-01T11:03:08;7.00;98.00
9915;DHT22;4996;48.746;9.174;2023-03-01T11:05:35;7.40;97.50
9915;DHT22;4996;48.746;9.174;2023-03-01T11:08:02;7.40;97.20
9915;DHT22;4996;48.746;9.174;2023-03-01T11:10:32;7.80;96.10
9915;DHT22;4996;48.746;9.174;2023-03-01T11:13:14;7.70;96.70
9915;DHT22;4996;48.746;9.174;2023-03-01T11:15:41;8.50;95.80
9915;DHT22;4996;48.746;9.174;2023-03-01T11:18:22;9.80;94.30
9915;DHT22;4996;48.746;9.174;2023-03-01T11:20:49;9.50;92.70
9915;DHT22;4996;48.746;9.174;2023-03-01T11:23:16;11.10;91.20
9915;DHT22;4996;48.746;9.174;2023-03-01T11:25:58;11.40;86.40
9915;DHT22;4996;48.746;9.174;2023-03-01T11:28:25;11.60;83.20
9915;DHT22;4996;48.746;9.174;2023-03-01T11:31:03;11.80;80.60
9915;DHT22;4996;48.746;9.174;2023-03-01T11:38:34;13.10;75.10
9915;DHT22;4996;48.746;9.174;2023-03-01T11:41:17;13.30;74.30
9915;DHT22;4996;48.746;9.174;2023-03-01T11:52:16;14.40;65.60
9915;DHT22;4996;48.746;9.174;2023-03-01T11:57:43;13.60;66.00
9915;DHT22;4996;48.746;9.174;2023-03-01T12:00:25;12.60;65.70
9915;DHT22;4996;48.746;9.174;2023-03-01T12:03:08;13.00;67.70
9915;DHT22;4996;48.746;9.174;2023-03-01T12:11:28;13.60;65.20
9915;DHT22;4996;48.746;9.174;2023-03-01T12:17:00;13.20;64.30
9915;DHT22;4996;48.746;9.174;2023-03-01T12:22:20;14.40;63.10
9915;DHT22;4996;48.746;9.174;2023-03-01T12:25:04;15.10;61.50
9915;DHT22;4996;48.746;9.174;2023-03-01T12:36:12;13.60;62.20
9915;DHT22;4996;48.746;9.174;2023-03-01T12:42:04;13.50;62.80
9915;DHT22;4996;48.746;9.174;2023-03-01T12:44:47;13.40;62.40
9915;DHT22;4996;48.746;9.174;2023-03-01T12:53:04;12.00;65.10
9915;DHT22;4996;48.746;9.174;2023-03-01T12:55:33;11.30;65.60
9915;DHT22;4996;48.746;9.174;2023-03-01T12:58:28;10.60;67.40
9915;DHT22;4996;48.746;9.174;2023-03-01T13:03:57;10.30;69.40
9915;DHT22;4996;48.746;9.174;2023-03-01T13:06:39;10.50;69.00
9915;DHT22;4996;48.746;9.174;2023-03-01T13:09:10;10.30;69.30
9915;DHT22;4996;48.746;9.174;2023-03-01T13:11:41;10.40;69.50
9915;DHT22;4996;48.746;9.174;2023-03-01T13:16:49;9.40;72.40
9915;DHT22;4996;48.746;9.174;2023-03-01T13:19:26;9.50;73.00
9915;DHT22;4996;48.746;9.174;2023-03-01T13:21:54;9.20;73.50
9915;DHT22;4996;48.746;9.174;2023-03-01T13:24:38;9.40;74.20
9915;DHT22;4996;48.746;9.174;2023-03-01T13:29:51;9.10;74.70
9915;DHT22;4996;48.746;9.174;2023-03-01T13:37:42;9.10;76.50
9915;DHT22;4996;48.746;9.174;2023-03-01T13:42:48;9.40;75.70
9915;DHT22;4996;48.746;9.174;2023-03-01T13:45:34;9.20;76.10
9915;DHT22;4996;48.746;9.174;2023-03-01T13:48:10;9.40;76.50
9915;DHT22;4996;48.746;9.174;2023-03-01T13:50:48;9.40;76.80
9915;DHT22;4996;48.746;9.174;2023-03-01T13:53:22;9.30;76.40
9915;DHT22;4996;48.746;9.174;2023-03-01T13:55:54;9.40;76.80
9915;DHT22;4996;48.746;9.174;2023-03-01T13:58:32;9.20;76.50
9915;DHT22;4996;48.746;9.174;2023-03-01T14:01:06;9.30;77.20
9915;DHT22;4996;48.746;9.174;2023-03-01T14:03:40;9.30;77.30
9915;DHT22;4996;48.746;9.174;2023-03-01T14:06:12;9.10;78.30
9915;DHT22;4996;48.746;9.174;2023-03-01T14:08:38;8.70;78.70
9915;DHT22;4996;48.746;9.174;2023-03-01T14:11:29;8.70;79.40
9915;DHT22;4996;48.746;9.174;2023-03-01T14:19:19;8.40;81.00
9915;DHT22;4996;48.746;9.174;2023-03-01T14:24:39;8.70;82.20
9915;DHT22;4996;48.746;9.174;2023-03-01T14:27:12;8.80;81.30
9915;DHT22;4996;48.746;9.174;2023-03-01T14:29:39;8.70;81.80
9915;DHT22;4996;48.746;9.174;2023-03-01T14:32:22;8.60;82.20
9915;DHT22;4996;48.746;9.174;2023-03-01T14:34:50;8.40;82.50
9915;DHT22;4996;48.746;9.174;2023-03-01T14:37:33;8.30;83.50
9915;DHT22;4996;48.746;9.174;2023-03-01T14:40:01;7.90;84.20
9915;DHT22;4996;48.746;9.174;2023-03-01T14:42:36;7.90;85.70
9915;DHT22;4996;48.746;9.174;2023-03-01T14:45:03;7.80;86.20
9915;DHT22;4996;48.746;9.174;2023-03-01T14:47:35;8.00;86.30
9915;DHT22;4996;48.746;9.174;2023-03-01T14:50:40;8.00;87.00
9915;DHT22;4996;48.746;9.174;2023-03-01T14:52:58;8.00;87.40
9915;DHT22;4996;48.746;9.174;2023-03-01T14:55:35;8.10;87.20
9915;DHT22;4996;48.746;9.174;2023-03-01T14:58:08;8.10;87.80
9915;DHT22;4996;48.746;9.174;2023-03-01T15:00:35;8.30;87.50
9915;DHT22;4996;48.746;9.174;2023-03-01T15:03:13;8.40;87.00
9915;DHT22;4996;48.746;9.174;2023-03-01T15:05:41;8.20;86.70
9915;DHT22;4996;48.746;9.174;2023-03-01T15:08:17;8.40;86.30
9915;DHT22;4996;48.746;9.174;2023-03-01T15:11:01;8.40;86.90
9915;DHT22;4996;48.746;9.174;2023-03-01T15:13:30;8.60;86.80
9915;DHT22;4996;48.746;9.174;2023-03-01T15:16:06;8.50;87.00
9915;DHT22;4996;48.746;9.174;2023-03-01T15:18:34;8.60;87.10
9915;DHT22;4996;48.746;9.174;2023-03-01T15:21:33;8.20;87.80
9915;DHT22;4996;48.746;9.174;2023-03-01T15:26:56;8.00;88.30
9915;DHT22;4996;48.746;9.174;2023-03-01T15:29:26;8.10;89.10
9915;DHT22;4996;48.746;9.174;2023-03-01T15:32:04;8.00;89.50
9915;DHT22;4996;48.746;9.174;2023-03-01T15:34:34;8.10;89.70
9915;DHT22;4996;48.746;9.174;2023-03-01T15:37:03;8.20;89.80
9915;DHT22;4996;48.746;9.174;2023-03-01T15:39:42;8.20;89.90
9915;DHT22;4996;48.746;9.174;2023-03-01T15:42:12;8.10;89.40
9915;DHT22;4996;48.746;9.174;2023-03-01T15:44:40;7.90;90.10
9915;DHT22;4996;48.746;9.174;2023-03-01T15:47:29;7.80;90.20
9915;DHT22;4996;48.746;9.174;2023-03-01T15:49:56;7.90;90.40
9915;DHT22;4996;48.746;9.174;2023-03-01T15:52:35;8.00;90.20
9915;DHT22;4996;48.746;9.174;2023-03-01T15:55:12;7.70;90.10
9915;DHT22;4996;48.746;9.174;2023-03-01T15:57:39;7.50;90.30
9915;DHT22;4996;48.746;9.174;2023-03-01T16:00:05;7.50;90.50
9915;DHT22;4996;48.746;9.174;2023-03-01T16:02:37;7.70;90.50
9915;DHT22;4996;48.746;9.174;2023-03-01T16:05:03;7.80;90.30
9915;DHT22;4996;48.746;9.174;2023-03-01T16:07:28;7.60;90.30
9915;DHT22;4996;48.746;9.174;2023-03-01T16:09:56;7.30;90.80
9915;DHT22;4996;48.746;9.174;2023-03-01T16:12:22;7.30;90.80
9915;DHT22;4996;48.746;9.174;2023-03-01T16:14:49;7.50;90.90
9915;DHT22;4996;48.746;9.174;2023-03-01T16:17:15;7.50;90.60
9915;DHT22;4996;48.746;9.174;2023-03-01T16:19:41;7.50;90.40
9915;DHT22;4996;48.746;9.174;2023-03-01T16:22:09;7.50;90.60
9915;DHT22;4996;48.746;9.174;2023-03-01T16:24:35;7.10;90.80
9915;DHT22;4996;48.746;9.174;2023-03-01T16:27:01;7.20;90.90
9915;DHT22;4996;48.746;9.174;2023-03-01T16:29:27;7.20;91.00
9915;DHT22;4996;48.746;9.174;2023-03-01T16:31:54;7.30;91.00
9915;DHT22;4996;48.746;9.174;2023-03-01T16:34:20;7.40;90.60
9915;DHT22;4996;48.746;9.174;2023-03-01T16:36:47;7.00;90.90
9915;DHT22;4996;48.746;9.174;2023-03-01T16:39:12;7.10;91.00
9915;DHT22;4996;48.746;9.174;2023-03-01T16:41:38;7.20;91.10
9915;DHT22;4996;48.746;9.174;2023-03-01T16:44:03;7.30;90.90
9915;DHT22;4996;48.746;9.174;2023-03-01T16:46:29;7.30;90.90
9915;DHT22;4996;48.746;9.174;2023-03-01T16:48:55;7.30;90.80
9915;DHT22;4996;48.746;9.174;2023-03-01T16:51:21;7.40;90.80
9915;DHT22;4996;48.746;9.174;2023-03-01T16:53:47;7.30;90.80
9915;DHT22;4996;48.746;9.174;2023-03-01T16:56:14;7.20;90.90
9915;DHT22;4996;48.746;9.174;2023-03-01T16:58:41;7.20;91.20
9915;DHT22;4996;48.746;9.174;2023-03-01T17:01:15;7.20;91.10
9915;DHT22;4996;48.746;9.174;2023-03-01T17:03:42;7.30;91.20
9915;DHT22;4996;48.746;9.174;2023-03-01T17:06:11;7.20;91.10
9915;DHT22;4996;48.746;9.174;2023-03-01T17:08:37;7.30;91.10
9915;DHT22;4996;48.746;9.174;2023-03-01T17:11:09;7.30;91.20
9915;DHT22;4996;48.746;9.174;2023-03-01T17:13:35;7.30;91.30
9915;DHT22;4996;48.746;9.174;2023-03-01T17:16:06;7.20;91.30
9915;DHT22;4996;48.746;9.174;2023-03-01T17:18:32;7.20;91.40
9915;DHT22;4996;48.746;9.174;2023-03-01T17:20:58;7.10;91.60
9915;DHT22;4996;48.746;9.174;2023-03-01T17:23:24;7.20;91.50
9915;DHT22;4996;48.746;9.174;2023-03-01T17:25:50;7.10;91.50
9915;DHT22;4996;48.746;9.174;2023-03-01T17:28:16;7.40;91.70
9915;DHT22;4996;48.746;9.174;2023-03-01T17:30:43;7.10;91.70
9915;DHT22;4996;48.746;9.174;2023-03-01T17:33:10;6.90;91.80
9915;DHT22;4996;48.746;9.174;2023-03-01T17:35:36;7.00;92.00
9915;DHT22;4996;48.746;9.174;2023-03-01T17:38:03;7.00;92.00
9915;DHT22;4996;48.746;9.174;2023-03-01T17:40:29;7.00;92.10
9915;DHT22;4996;48.746;9.174;2023-03-01T17:42:55;6.90;92.30
9915;DHT22;4996;48.746;9.174;2023-03-01T17:45:21;6.90;92.50
9915;DHT22;4996;48.746;9.174;2023-03-01T17:47:47;6.90;92.60
9915;DHT22;4996;48.746;9.174;2023-03-01T17:50:12;6.90;92.80
9915;DHT22;4996;48.746;9.174;2023-03-01T17:52:38;6.70;93.10
9915;DHT22;4996;48.746;9.174;2023-03-01T17:55:04;6.70;93.30
9915;DHT22;4996;48.746;9.174;2023-03-01T17:57:30;6.60;93.50
9915;DHT22;4996;48.746;9.174;2023-03-01T17:59:55;6.60;93.60
9915;DHT22;4996;48.746;9.174;2023-03-01T18:02:21;6.60;93.70
9915;DHT22;4996;48.746;9.174;2023-03-01T18:04:46;6.60;93.80
9915;DHT22;4996;48.746;9.174;2023-03-01T18:07:12;6.60;93.90
9915;DHT22;4996;48.746;9.174;2023-03-01T18:09:38;6.50;94.00